METAR AND TAF INFORMATION
METAR FOR PGUM
ADDS - METARS form results

(0352 UTC 22 October 2018)
Data provider http://aviationweather.gov/metar/data/
 
METAR text: PGUM 220305Z 09011KT 8SM RA FEW018 SCT025 BKN043 30/27 A2979 RMK AO2 RAB04 P0000 T03000267
Conditions at: PGUM (AGANA , GU, US) observed 0305 UTC 22 October 2018
Temperature: 30.0°C (86°F)
Dewpoint: 26.7°C (80°F) [RH = 83%]
Pressure (altimeter): 29.79 inches Hg (1008.9 mb)
Winds: from the E (90 degrees) at 13 MPH (11 knots; 5.7 m/s)
Visibility: 8 miles (13 km)
Ceiling: 4300 feet AGL
Clouds: few clouds at 1800 feet AGL
scattered clouds at 2500 feet AGL
broken clouds at 4300 feet AGL
Weather: RA  (moderate rain)

METAR text: PGUM 220301Z 09013KT 10SM FEW018 SCT025 BKN045 31/26 A2978 RMK AO2 T03060261
Conditions at: PGUM (AGANA , GU, US) observed 0301 UTC 22 October 2018
Temperature: 30.6°C (87°F)
Dewpoint: 26.1°C (79°F) [RH = 77%]
Pressure (altimeter): 29.78 inches Hg (1008.5 mb)
Winds: from the E (90 degrees) at 15 MPH (13 knots; 6.7 m/s)
Visibility: 10 or more miles (16+ km)
Ceiling: 4500 feet AGL
Clouds: few clouds at 1800 feet AGL
scattered clouds at 2500 feet AGL
broken clouds at 4500 feet AGL
Weather: no significant weather observed at this time

METAR text: PGUM 220254Z 09010KT 10SM SCT020 BKN027 BKN047 31/27 A2978 RMK AO2 SLP077 60000 T03060267 56016
Conditions at: PGUM (AGANA , GU, US) observed 0254 UTC 22 October 2018
Temperature: 30.6°C (87°F)
Dewpoint: 26.7°C (80°F) [RH = 80%]
Pressure (altimeter): 29.78 inches Hg (1008.5 mb)
[Sea-level pressure: 1007.7 mb]
Winds: from the E (90 degrees) at 12 MPH (10 knots; 5.1 m/s)
Visibility: 10 or more miles (16+ km)
Ceiling: 2700 feet AGL
Clouds: scattered clouds at 2000 feet AGL
broken clouds at 2700 feet AGL
broken clouds at 4700 feet AGL
Weather: no significant weather observed at this time

Forecast for: PGUM (AGANA , GU, US)
Text: PGUM 212320Z 2200/2306 10010KT P6SM VCSH SCT017 SCT026
Forecast period: 0000 UTC 22 October 2018 to 0600 UTC 23 October 2018
Forecast type: FROM: standard forecast or significant change
Winds: from the E (100 degrees) at 12 MPH (10 knots; 5.1 m/s)
Visibility: 6 or more miles 10+ km)
Ceiling: at least 12,000 feet AGL
Clouds: scattered clouds at 1700 feet AGL
scattered clouds at 2600 feet AGL
Weather: VCSH  (showers in vicinity)

 AIRPORT MAP

 RUNWAY INFORMATION
Runway 06L Runway length 10015 ft Runway width 150 ft
Runway elevation 239 ft Runway displaced threshold 0 ft Runway heading 65
Runway 24R Runway length 10015 ft Runway width 150 ft
Runway elevation 297 ft Runway displaced threshold 0 ft Runway heading 245
Runway 06R Runway length 8001 ft Runway width 150 ft
Runway elevation 231 ft Runway displaced threshold 0 ft Runway heading 65
Runway 24L Runway length 8001 ft Runway width 150 ft
Runway elevation 284 ft Runway displaced threshold 0 ft Runway heading 245

 AIRPORT FREQUENCIES
Type A/D Name APP/DEP Frequency 118.7 MHZ
Type ARTC Name GUAM CERAP Frequency 120.5 MHZ
Type ATIS Name ATIS Frequency 119 MHZ
Type CLD Name CLNC DEL Frequency 121.9 MHZ
Type GND Name GND Frequency 121.9 MHZ
Type RMP Name RAMP Frequency 121.6 MHZ
Type TWR Name AGANA TWR Frequency 118.1 MHZ

 AIRPORT NEAR NAVIGATION AIDS
Type NDB Name Mt Macajna Frequency 385 KHZ
Type VORTAC Name Nimitz Frequency 115300 KHZ



Powered by Virtual Airlines Manager [v2.6.2]